Time;durP1;ratioP1;P1;durP2;ratioP2;P2;SDS_P1;SDS_P2;PMS_P1;PMS_P2;Temp;Humidity;BMP_temperature;BMP_pressure;BME280_temperature;BME280_humidity;BME280_pressure;Samples;Min_cycle;Max_cycle;Signal;HPM_P1;HPM_P2
2022/07/19 00:00:32;;;;;;;20.20;7.90;;;;;;;17.51;63.81;99886.31;24991;1318;3051547;-60
2022/07/19 00:03:01;;;;;;;30.70;12.20;;;;;;;17.41;64.17;99885.48;25076;1315;3026446;-59
2022/07/19 00:05:30;;;;;;;16.30;6.70;;;;;;;17.34;63.89;99886.23;25004;1318;3058419;-64
2022/07/19 00:07:59;;;;;;;13.40;5.90;;;;;;;17.35;63.28;99887.22;25036;1315;3026784;-62
2022/07/19 00:10:28;;;;;;;14.20;5.80;;;;;;;17.33;63.26;99884.78;25036;1318;3054773;-63
2022/07/19 00:12:59;;;;;;;10.00;5.00;;;;;;;17.34;61.99;99884.88;25084;1318;3026331;-61
2022/07/19 00:15:29;;;;;;;10.40;4.60;;;;;;;17.35;61.91;99882.31;25066;1318;3027073;-63
2022/07/19 00:17:59;;;;;;;20.50;7.90;;;;;;;17.35;61.63;99883.55;25066;1318;3025930;-64
2022/07/19 00:20:28;;;;;;;39.90;14.00;;;;;;;17.37;61.55;99881.92;25009;1318;3026634;-62
2022/07/19 00:22:57;;;;;;;28.80;11.40;;;;;;;17.36;61.07;99882.00;25041;1318;3051446;-61
2022/07/19 00:25:26;;;;;;;15.60;7.20;;;;;;;17.35;61.21;99883.71;25050;1318;3026757;-63
2022/07/19 00:27:55;;;;;;;14.00;7.20;;;;;;;17.30;61.50;99880.38;25044;1318;3058175;-62
2022/07/19 00:30:25;;;;;;;14.60;6.60;;;;;;;17.24;61.72;99882.31;25047;1318;3026326;-61
2022/07/19 00:32:54;;;;;;;11.10;4.30;;;;;;;17.22;61.76;99884.36;25014;1318;3054665;-65
2022/07/19 00:35:23;;;;;;;9.70;5.20;;;;;;;17.22;61.64;99881.61;25070;1318;3026765;-61
2022/07/19 00:37:52;;;;;;;29.20;14.40;;;;;;;17.20;61.30;99885.57;25026;1318;3054779;-62
2022/07/19 00:40:24;;;;;;;52.70;22.30;;;;;;;17.16;61.68;99885.77;25064;1317;3026538;-62
2022/07/19 00:42:54;;;;;;;31.60;14.00;;;;;;;17.12;61.61;99879.93;25079;1317;3048235;-62
2022/07/19 00:45:24;;;;;;;18.80;9.20;;;;;;;17.08;61.79;99882.91;24998;1318;3027044;-63
2022/07/19 00:47:53;;;;;;;16.20;8.10;;;;;;;17.06;61.57;99879.33;25077;1318;3026380;-61
2022/07/19 00:50:22;;;;;;;18.80;9.60;;;;;;;17.04;61.68;99879.71;25061;1318;3047153;-60
2022/07/19 00:52:54;;;;;;;13.60;7.20;;;;;;;17.00;62.10;99879.08;25061;1318;3026381;-60
2022/07/19 00:55:23;;;;;;;9.00;5.60;;;;;;;16.95;62.55;99884.46;25066;1318;3069121;-62
2022/07/19 00:57:52;;;;;;;5.60;1.90;;;;;;;16.89;63.29;99883.52;25008;1318;3026643;-63
2022/07/19 01:00:21;;;;;;;4.30;2.00;;;;;;;16.79;63.94;99884.44;25043;1316;3053854;-61
2022/07/19 01:02:51;;;;;;;3.90;1.40;;;;;;;16.75;64.36;99884.97;25063;1318;3027327;-63
2022/07/19 01:05:20;;;;;;;7.60;3.40;;;;;;;16.72;64.91;99887.00;25078;1318;3026808;-61
2022/07/19 01:07:49;;;;;;;9.80;4.00;;;;;;;17.36;63.46;99886.11;25044;1318;3026501;-62
2022/07/19 01:10:20;;;;;;;8.50;4.90;;;;;;;17.60;62.66;99891.95;25030;1317;3068684;-64
2022/07/19 01:12:49;;;;;;;11.70;5.80;;;;;;;17.67;62.39;99886.39;25054;1318;3027255;-60
2022/07/19 01:15:21;;;;;;;9.30;5.70;;;;;;;17.46;62.71;99886.86;24963;1317;3026511;-61
2022/07/19 01:17:52;;;;;;;14.40;7.50;;;;;;;17.14;63.53;99889.84;25021;1318;3027560;-62
2022/07/19 01:20:22;;;;;;;21.80;9.50;;;;;;;16.93;64.27;99896.50;25096;1317;3026919;-62
2022/07/19 01:22:51;;;;;;;10.90;6.60;;;;;;;16.83;64.82;99893.21;25075;1317;3055808;-61
2022/07/19 01:25:21;;;;;;;9.30;4.10;;;;;;;16.77;64.90;99894.20;25041;1316;3026491;-63
2022/07/19 01:27:50;;;;;;;7.40;3.60;;;;;;;16.66;65.18;99894.20;24932;1317;3048877;-62
2022/07/19 01:30:21;;;;;;;8.40;4.80;;;;;;;16.55;65.37;99891.81;25018;1318;3027030;-63
2022/07/19 01:32:51;;;;;;;9.70;4.10;;;;;;;16.46;65.71;99895.16;25085;1316;3027023;-61
2022/07/19 01:35:19;;;;;;;8.70;4.00;;;;;;;16.38;65.82;99894.71;25030;1316;3026314;-60
2022/07/19 01:37:49;;;;;;;5.20;3.70;;;;;;;16.35;65.93;99896.79;25017;1318;3054831;-62
2022/07/19 01:40:18;;;;;;;6.10;3.30;;;;;;;16.95;64.54;99895.04;24981;1318;3026176;-61
2022/07/19 01:42:47;;;;;;;11.50;4.00;;;;;;;17.30;63.20;99897.55;25037;1318;3026448;-65
2022/07/19 01:45:16;;;;;;;9.30;3.80;;;;;;;17.18;63.23;99898.49;25015;1318;3054776;-65
2022/07/19 01:47:46;;;;;;;6.80;3.90;;;;;;;17.01;63.33;99900.09;25008;1318;3027001;-65
2022/07/19 01:50:17;;;;;;;9.40;3.40;;;;;;;16.79;64.13;99901.27;25039;1315;3026161;-62
2022/07/19 01:52:47;;;;;;;7.70;3.40;;;;;;;16.55;64.77;99902.30;25045;1318;3027359;-65
2022/07/19 01:55:18;;;;;;;7.20;3.90;;;;;;;16.35;65.47;99902.80;25129;1318;3026545;-62
2022/07/19 01:57:50;;;;;;;7.40;3.60;;;;;;;16.22;66.22;99903.92;25096;1315;3029658;-63
2022/07/19 02:00:19;;;;;;;8.70;3.40;;;;;;;16.08;66.75;99900.45;25021;1316;3026611;-61
2022/07/19 02:02:49;;;;;;;9.50;3.30;;;;;;;16.03;66.71;99906.11;25094;1315;3026116;-61
2022/07/19 02:05:17;;;;;;;5.80;2.70;;;;;;;16.02;66.88;99904.98;25060;1315;3053118;-64
2022/07/19 02:07:48;;;;;;;7.80;2.80;;;;;;;16.43;65.86;99907.08;25080;1315;3028393;-64
2022/07/19 02:10:17;;;;;;;7.20;3.00;;;;;;;16.79;64.40;99902.02;25064;1315;3026610;-65
2022/07/19 02:12:47;;;;;;;5.20;2.90;;;;;;;16.71;64.42;99907.02;25123;1315;3049595;-61
2022/07/19 02:15:16;;;;;;;12.90;3.30;;;;;;;16.45;65.30;99911.70;25024;1315;3026413;-64
2022/07/19 02:17:46;;;;;;;5.40;2.80;;;;;;;16.29;65.83;99911.86;24952;1318;3056019;-64
2022/07/19 02:20:15;;;;;;;7.50;3.00;;;;;;;16.12;66.53;99913.91;25095;1315;3029828;-61
2022/07/19 02:22:45;;;;;;;8.50;2.80;;;;;;;16.02;67.00;99911.68;25093;1315;3049850;-60
2022/07/19 02:25:16;;;;;;;7.20;2.20;;;;;;;15.99;67.12;99918.81;25087;1316;3026381;-62
2022/07/19 02:27:44;;;;;;;6.40;2.20;;;;;;;16.01;66.80;99914.72;25075;1315;3026788;-60
2022/07/19 02:30:14;;;;;;;3.70;1.60;;;;;;;16.05;67.00;99923.30;25041;1315;3050362;-62
2022/07/19 02:32:43;;;;;;;4.80;2.20;;;;;;;16.55;65.81;99924.94;25104;1314;3026446;-62
2022/07/19 02:35:13;;;;;;;6.60;2.00;;;;;;;16.78;64.56;99919.23;25039;1314;3058523;-63
2022/07/19 02:37:42;;;;;;;5.50;1.90;;;;;;;16.75;64.65;99920.84;25029;1315;3027483;-60
2022/07/19 02:40:12;;;;;;;5.00;1.50;;;;;;;16.58;65.12;99923.98;25041;1314;3026891;-62
2022/07/19 02:42:41;;;;;;;3.40;1.70;;;;;;;16.39;65.72;99925.62;25116;1315;3056958;-62
2022/07/19 02:45:11;;;;;;;3.60;2.10;;;;;;;16.27;65.93;99924.23;25049;1315;3026655;-61
2022/07/19 02:47:41;;;;;;;7.80;2.00;;;;;;;16.10;66.64;99932.41;25224;1314;3026167;-62
2022/07/19 02:50:10;;;;;;;5.40;1.60;;;;;;;15.98;67.16;99926.08;25171;1313;3026493;-61
2022/07/19 02:52:39;;;;;;;2.90;1.40;;;;;;;15.89;67.42;99931.33;25086;1313;3049217;-61
2022/07/19 02:55:08;;;;;;;4.80;1.10;;;;;;;15.90;67.65;99925.98;25074;1313;3026555;-62
2022/07/19 02:57:37;;;;;;;5.40;1.40;;;;;;;16.46;66.02;99933.52;25115;1313;3058451;-62
2022/07/19 03:00:09;;;;;;;2.70;1.30;;;;;;;16.83;64.70;99934.23;25044;1314;3028140;-62
2022/07/19 03:02:39;;;;;;;5.00;1.70;;;;;;;16.77;64.57;99937.14;25102;1314;3056867;-61
2022/07/19 03:05:08;;;;;;;3.20;1.60;;;;;;;16.66;64.77;99936.93;25005;1314;3027165;-63
2022/07/19 03:07:38;;;;;;;5.40;1.70;;;;;;;16.48;65.34;99940.33;25015;1313;3026608;-62
2022/07/19 03:10:07;;;;;;;4.00;1.80;;;;;;;16.29;66.05;99944.81;25088;1313;3026166;-63
2022/07/19 03:12:37;;;;;;;3.60;1.40;;;;;;;16.20;66.41;99945.33;25155;1313;3056199;-61
2022/07/19 03:15:07;;;;;;;3.80;1.70;;;;;;;16.11;66.76;99949.83;25093;1315;3027213;-61
2022/07/19 03:17:37;;;;;;;3.80;1.50;;;;;;;16.02;66.68;99952.85;25104;1313;3053062;-60
2022/07/19 03:20:07;;;;;;;5.80;1.70;;;;;;;16.03;67.23;99952.76;25000;1314;3027195;-59
2022/07/19 03:22:38;;;;;;;5.50;1.60;;;;;;;16.50;65.84;99954.60;25042;1315;3051845;-61
2022/07/19 03:25:08;;;;;;;8.10;1.40;;;;;;;16.75;64.77;99959.09;25022;1315;3026744;-60
2022/07/19 03:27:37;;;;;;;3.40;1.60;;;;;;;16.75;64.67;99960.10;25042;1314;3048450;-62
2022/07/19 03:30:07;;;;;;;5.60;1.40;;;;;;;16.61;64.96;99960.66;24994;1315;3026320;-62
2022/07/19 03:32:36;;;;;;;2.30;1.20;;;;;;;16.49;65.19;99963.38;25038;1314;3028356;-63
2022/07/19 03:35:06;;;;;;;4.70;1.70;;;;;;;16.29;66.01;99968.43;24990;1314;3026670;-61
2022/07/19 03:37:35;;;;;;;6.10;1.30;;;;;;;16.25;66.07;99967.85;25063;1314;3051788;-61
2022/07/19 03:40:05;;;;;;;2.30;1.20;;;;;;;16.28;65.98;99965.71;25060;1315;3026648;-61
2022/07/19 03:42:34;;;;;;;2.70;1.30;;;;;;;16.21;66.14;99969.58;25073;1315;3051444;-61
2022/07/19 03:45:04;;;;;;;3.10;1.10;;;;;;;16.21;66.27;99968.52;25100;1313;3026126;-61
2022/07/19 03:47:33;;;;;;;4.70;1.30;;;;;;;16.79;64.60;99973.30;25092;1315;3068809;-61
2022/07/19 03:50:03;;;;;;;3.10;1.20;;;;;;;17.05;63.47;99964.84;25026;1315;3026553;-61
2022/07/19 03:52:32;;;;;;;1.50;1.00;;;;;;;17.15;63.25;99968.36;25083;1315;3053842;-60
2022/07/19 03:55:01;;;;;;;3.00;1.00;;;;;;;17.02;63.33;99970.40;25056;1314;3026740;-60
2022/07/19 03:57:30;;;;;;;3.50;1.30;;;;;;;17.00;63.56;99970.24;25068;1313;3055005;-59
2022/07/19 03:59:59;;;;;;;2.00;1.00;;;;;;;16.95;63.75;99971.02;25125;1316;3026684;-64
2022/07/19 04:02:28;;;;;;;3.30;1.30;;;;;;;16.90;63.52;99973.44;25075;1313;3052930;-60
2022/07/19 04:04:57;;;;;;;4.60;1.10;;;;;;;16.92;63.53;99971.93;25066;1315;3026443;-61
2022/07/19 04:07:27;;;;;;;2.00;0.90;;;;;;;16.91;63.31;99972.48;25095;1313;3059385;-63
2022/07/19 04:09:56;;;;;;;4.80;1.20;;;;;;;16.89;63.63;99976.40;25072;1313;3026609;-60
2022/07/19 04:12:25;;;;;;;2.70;1.30;;;;;;;16.85;63.69;99978.25;25082;1316;3054872;-60
2022/07/19 04:14:54;;;;;;;2.20;1.20;;;;;;;16.89;63.56;99979.39;25059;1313;3026860;-61
2022/07/19 04:17:24;;;;;;;1.70;1.10;;;;;;;16.90;63.80;99979.66;25083;1312;3054155;-60
2022/07/19 04:19:53;;;;;;;3.30;1.20;;;;;;;16.90;63.84;99984.98;25090;1313;3025992;-66
2022/07/19 04:22:23;;;;;;;1.70;1.00;;;;;;;16.89;63.94;99989.45;25066;1315;3051172;-61
2022/07/19 04:24:53;;;;;;;4.60;1.70;;;;;;;16.86;63.96;99989.35;25075;1315;3027191;-63
2022/07/19 04:27:22;;;;;;;2.50;1.00;;;;;;;16.84;63.72;99992.55;25031;1314;3026898;-62
2022/07/19 04:29:52;;;;;;;3.40;1.20;;;;;;;16.77;63.75;99994.28;25058;1314;3050758;-62
2022/07/19 04:32:21;;;;;;;4.30;1.20;;;;;;;16.79;63.86;99995.73;25091;1315;3026167;-62
2022/07/19 04:34:50;;;;;;;2.30;1.40;;;;;;;16.87;63.76;99992.45;25017;1314;3026909;-63
2022/07/19 04:37:19;;;;;;;3.40;1.20;;;;;;;16.93;63.77;99995.23;25054;1314;3052150;-62
2022/07/19 04:39:49;;;;;;;3.00;1.20;;;;;;;17.00;63.52;99992.41;25062;1315;3026313;-61
2022/07/19 04:42:18;;;;;;;2.00;0.80;;;;;;;17.11;63.24;99992.74;25032;1315;3027067;-61
2022/07/19 04:44:47;;;;;;;2.60;0.90;;;;;;;17.76;61.75;99988.73;25135;1315;3049128;-61
2022/07/19 04:47:16;;;;;;;3.90;0.90;;;;;;;18.39;59.51;99991.63;25038;1315;3028626;-63
2022/07/19 04:49:45;;;;;;;4.70;1.00;;;;;;;18.59;58.97;99989.27;25108;1315;3070504;-61
2022/07/19 04:52:14;;;;;;;4.20;0.90;;;;;;;18.57;58.57;99992.30;25045;1314;3026660;-61
2022/07/19 04:54:43;;;;;;;4.10;1.10;;;;;;;18.53;58.43;99988.55;25053;1314;3053074;-64
2022/07/19 04:57:13;;;;;;;2.50;1.10;;;;;;;18.48;58.46;99991.82;25055;1315;3029425;-63
2022/07/19 04:59:42;;;;;;;3.20;0.90;;;;;;;18.44;58.29;99991.27;25038;1315;3055184;-62
2022/07/19 05:02:11;;;;;;;6.60;1.20;;;;;;;18.41;58.22;99989.70;25119;1315;3026679;-62
2022/07/19 05:04:40;;;;;;;1.90;1.10;;;;;;;18.35;58.33;99991.44;25043;1314;3049545;-62
2022/07/19 05:07:09;;;;;;;4.50;0.90;;;;;;;18.28;58.50;99991.70;25126;1316;3026562;-61
2022/07/19 05:09:39;;;;;;;4.60;1.20;;;;;;;18.24;58.39;99991.00;25087;1314;3057835;-64
2022/07/19 05:12:09;;;;;;;3.30;1.00;;;;;;;18.23;58.78;99990.55;25097;1315;3026592;-61
2022/07/19 05:14:39;;;;;;;2.10;0.80;;;;;;;18.22;58.34;99993.41;25047;1315;3054754;-62
2022/07/19 05:17:11;;;;;;;4.90;1.30;;;;;;;18.23;58.22;99989.80;25108;1315;3027026;-64
2022/07/19 05:19:40;;;;;;;4.20;1.50;;;;;;;18.23;58.39;99987.66;25066;1314;3026757;-64
2022/07/19 05:22:10;;;;;;;1.50;1.00;;;;;;;18.29;58.45;99987.38;25076;1313;3027356;-64
2022/07/19 05:24:39;;;;;;;3.50;0.90;;;;;;;18.33;58.15;99987.73;25102;1313;3026203;-63
2022/07/19 05:27:08;;;;;;;6.40;1.10;;;;;;;18.31;57.70;99988.27;25106;1313;3049113;-65
2022/07/19 05:29:37;;;;;;;2.00;0.90;;;;;;;18.33;57.61;99985.77;25097;1314;3026917;-61
2022/07/19 05:32:06;;;;;;;2.90;1.20;;;;;;;18.42;57.27;99990.56;25116;1315;3059289;-63
2022/07/19 05:34:36;;;;;;;1.30;0.80;;;;;;;18.39;57.61;99990.94;25059;1314;3026450;-62
2022/07/19 05:37:05;;;;;;;2.50;1.20;;;;;;;18.38;57.50;99991.20;25074;1315;3026679;-63
2022/07/19 05:39:35;;;;;;;3.70;1.10;;;;;;;18.52;56.85;99983.65;25091;1314;3058959;-64
2022/07/19 05:42:04;;;;;;;1.50;0.90;;;;;;;18.65;56.90;99981.13;25176;1315;3026276;-62
2022/07/19 05:44:33;;;;;;;5.30;1.50;;;;;;;18.73;56.83;99980.97;25067;1314;3055164;-64
2022/07/19 05:47:02;;;;;;;2.50;1.00;;;;;;;18.84;56.77;99978.98;25039;1314;3026807;-64
2022/07/19 05:49:31;;;;;;;3.60;0.90;;;;;;;18.92;56.30;99979.17;25046;1315;3054422;-62
2022/07/19 05:52:00;;;;;;;2.20;1.00;;;;;;;18.95;55.98;99976.95;25027;1315;3029686;-62
2022/07/19 05:54:29;;;;;;;2.50;1.00;;;;;;;18.92;55.65;99982.68;25094;1314;3048735;-63
2022/07/19 05:56:59;;;;;;;1.80;1.00;;;;;;;18.98;55.60;99980.46;25144;1313;3026514;-62
2022/07/19 05:59:28;;;;;;;2.90;0.70;;;;;;;19.02;55.17;99976.35;25066;1316;3026394;-64
2022/07/19 06:01:57;;;;;;;7.00;1.10;;;;;;;19.02;55.45;99975.98;25123;1315;3048715;-62
2022/07/19 06:04:26;;;;;;;3.50;1.00;;;;;;;19.10;54.35;99972.39;25068;1313;3026859;-61
2022/07/19 06:06:55;;;;;;;3.90;0.90;;;;;;;19.16;54.90;99972.10;25087;1313;3068946;-64
2022/07/19 06:09:23;;;;;;;9.70;1.30;;;;;;;19.27;54.89;99968.27;25071;1316;3026744;-63
2022/07/19 06:11:53;;;;;;;2.20;0.70;;;;;;;19.38;54.31;99973.13;25122;1313;3054428;-63
2022/07/19 06:14:22;;;;;;;2.40;0.90;;;;;;;19.33;52.75;99972.23;25079;1313;3026434;-63
2022/07/19 06:16:53;;;;;;;5.90;1.30;;;;;;;19.25;53.99;99971.09;25090;1313;3026342;-64
2022/07/19 06:19:23;;;;;;;1.80;0.90;;;;;;;19.38;53.69;99969.77;25308;1313;3051265;-63
2022/07/19 06:21:53;;;;;;;3.80;0.90;;;;;;;19.49;52.81;99967.73;25017;1314;3030825;-63
2022/07/19 06:24:22;;;;;;;4.70;1.00;;;;;;;19.61;52.42;99970.24;25037;1315;3052161;-63
2022/07/19 06:26:51;;;;;;;1.20;0.60;;;;;;;19.56;51.00;99977.05;25061;1315;3027612;-65
2022/07/19 06:29:20;;;;;;;3.00;0.90;;;;;;;19.53;51.47;99975.57;25161;1314;3026883;-63
2022/07/19 06:31:49;;;;;;;4.50;0.80;;;;;;;19.55;51.39;99976.77;25079;1315;3052726;-63
2022/07/19 06:34:19;;;;;;;3.90;0.80;;;;;;;19.55;51.06;99976.06;25083;1315;3026956;-62
2022/07/19 06:36:48;;;;;;;5.10;1.20;;;;;;;19.55;51.81;99973.08;25072;1315;3026510;-65
2022/07/19 06:39:18;;;;;;;2.20;1.00;;;;;;;19.59;51.52;99976.45;25160;1314;3054870;-64
2022/07/19 06:41:48;;;;;;;4.50;1.10;;;;;;;19.62;51.51;99972.45;24696;1315;3026517;-65
2022/07/19 06:44:20;;;;;;;2.30;0.90;;;;;;;19.72;51.19;99968.33;25128;1315;3051265;-63
2022/07/19 06:46:49;;;;;;;2.20;0.90;;;;;;;19.83;51.21;99970.44;25107;1315;3026119;-65
2022/07/19 06:49:18;;;;;;;3.70;1.00;;;;;;;19.97;51.22;99964.14;25154;1315;3058913;-65
2022/07/19 06:51:46;;;;;;;3.50;1.00;;;;;;;20.11;51.00;99960.67;25132;1315;3026506;-65
2022/07/19 06:54:15;;;;;;;4.40;0.60;;;;;;;20.22;49.20;99958.80;25049;1314;3053116;-63
2022/07/19 06:56:45;;;;;;;3.30;1.10;;;;;;;20.23;49.75;99963.83;25159;1315;3026491;-63
2022/07/19 06:59:14;;;;;;;3.70;0.80;;;;;;;20.20;48.73;99967.30;25097;1313;3055048;-65
2022/07/19 07:01:43;;;;;;;2.90;0.90;;;;;;;20.15;49.42;99962.19;25083;1316;3026825;-64
2022/07/19 07:04:13;;;;;;;3.60;0.80;;;;;;;20.25;49.03;99960.68;25095;1313;3048467;-64
2022/07/19 07:06:41;;;;;;;2.60;0.90;;;;;;;20.41;48.35;99962.78;25128;1313;3026722;-63
2022/07/19 07:09:14;;;;;;;3.10;0.80;;;;;;;20.39;47.01;99966.80;25111;1313;3071215;-65
2022/07/19 07:11:43;;;;;;;5.20;1.10;;;;;;;20.27;47.56;99965.09;25127;1313;3026921;-62
2022/07/19 07:14:12;;;;;;;5.60;1.00;;;;;;;20.33;47.17;99963.64;25048;1316;3028575;-66
2022/07/19 07:16:41;;;;;;;4.20;0.60;;;;;;;20.42;45.88;99967.05;25162;1314;3071244;-66
2022/07/19 07:19:10;;;;;;;2.60;0.70;;;;;;;20.46;46.22;99964.36;25407;1315;3026795;-65
2022/07/19 07:21:39;;;;;;;3.80;0.90;;;;;;;20.61;46.19;99964.60;25204;1314;3051485;-65
2022/07/19 07:24:08;;;;;;;5.10;0.70;;;;;;;20.74;46.39;99960.70;25034;1313;3026840;-63
2022/07/19 07:26:43;;;;;;;2.70;0.60;;;;;;;20.77;45.76;99965.94;25136;1313;3054729;-64
2022/07/19 07:29:14;;;;;;;2.70;0.70;;;;;;;20.89;44.91;99962.72;25064;1314;3054694;-69
2022/07/19 07:31:44;;;;;;;1.50;0.80;;;;;;;20.94;44.66;99962.73;25124;1310;3026402;-63
2022/07/19 07:34:14;;;;;;;3.30;0.80;;;;;;;21.14;44.53;99961.38;25055;1315;3027221;-64
2022/07/19 07:36:44;;;;;;;2.60;0.80;;;;;;;21.27;43.88;99957.52;25105;1315;3027085;-62
2022/07/19 07:39:13;;;;;;;2.80;0.70;;;;;;;21.22;43.24;99965.94;25086;1313;3069161;-64
2022/07/19 07:41:43;;;;;;;1.20;0.70;;;;;;;21.16;43.66;99965.41;25122;1313;3026529;-65
2022/07/19 07:44:12;;;;;;;4.20;1.00;;;;;;;21.35;43.93;99964.26;25002;1314;3028284;-63
2022/07/19 07:46:42;;;;;;;2.60;0.70;;;;;;;21.41;43.80;99961.07;25031;1313;3026642;-60
2022/07/19 07:49:10;;;;;;;6.00;1.00;;;;;;;21.53;44.06;99960.20;25136;1315;3026580;-63
2022/07/19 07:51:39;;;;;;;2.00;1.00;;;;;;;21.63;43.74;99960.38;25079;1315;3052945;-62
2022/07/19 07:54:09;;;;;;;5.00;0.70;;;;;;;21.54;42.67;99957.81;25108;1313;3028582;-62
2022/07/19 07:56:38;;;;;;;2.70;0.70;;;;;;;21.28;42.72;99970.27;25102;1313;3026452;-62
2022/07/19 07:59:08;;;;;;;4.30;0.60;;;;;;;21.13;42.77;99962.84;25040;1313;3054294;-63
2022/07/19 08:01:39;;;;;;;2.40;0.70;;;;;;;21.29;43.01;99954.22;25042;1316;3026822;-66
2022/07/19 08:04:07;;;;;;;4.60;0.90;;;;;;;21.37;42.80;99957.55;25052;1315;3027361;-63
2022/07/19 08:06:37;;;;;;;2.10;0.90;;;;;;;21.49;42.77;99950.64;25089;1316;3027555;-66
2022/07/19 08:09:06;;;;;;;3.40;0.60;;;;;;;21.78;42.34;99950.48;25185;1315;3026490;-66
2022/07/19 08:11:35;;;;;;;8.00;0.70;;;;;;;21.90;41.65;99953.19;25076;1314;3058063;-64
2022/07/19 08:14:06;;;;;;;1.70;0.60;;;;;;;21.95;41.09;99952.13;25042;1316;3028630;-63
2022/07/19 08:16:35;;;;;;;1.10;0.50;;;;;;;21.84;40.35;99953.81;25134;1313;3026660;-66
2022/07/19 08:19:04;;;;;;;5.80;0.80;;;;;;;21.83;40.51;99944.45;25056;1313;3026478;-63
2022/07/19 08:21:34;;;;;;;1.10;0.60;;;;;;;22.07;40.67;99942.39;25031;1313;3048748;-63
2022/07/19 08:24:04;;;;;;;4.20;0.80;;;;;;;22.24;40.68;99942.63;25125;1313;3026383;-62
2022/07/19 08:26:33;;;;;;;4.90;0.90;;;;;;;22.42;40.49;99947.09;25057;1313;3026601;-62
2022/07/19 08:29:02;;;;;;;3.50;0.80;;;;;;;22.27;40.18;99949.12;25047;1315;3027131;-63
2022/07/19 08:31:31;;;;;;;3.20;1.10;;;;;;;22.32;40.35;99950.92;25097;1315;3026946;-62
2022/07/19 08:34:00;;;;;;;1.80;0.80;;;;;;;22.22;40.28;99949.08;25137;1313;3055298;-64
2022/07/19 08:36:29;;;;;;;4.10;0.80;;;;;;;22.22;40.60;99938.85;25131;1313;3026726;-63
2022/07/19 08:38:58;;;;;;;1.50;0.70;;;;;;;22.46;40.04;99939.29;25107;1313;3052052;-63
2022/07/19 08:41:28;;;;;;;3.40;0.80;;;;;;;22.69;39.56;99934.21;25101;1313;3026990;-64
2022/07/19 08:43:57;;;;;;;2.80;0.50;;;;;;;22.85;39.08;99932.10;25087;1315;3026740;-62
2022/07/19 08:46:26;;;;;;;3.60;1.10;;;;;;;22.97;38.17;99930.28;25021;1315;3053811;-63
2022/07/19 08:48:55;;;;;;;1.30;0.60;;;;;;;22.81;37.24;99934.77;25091;1315;3028106;-65
2022/07/19 08:51:26;;;;;;;2.10;0.60;;;;;;;22.47;37.37;99934.08;25077;1313;3049699;-62
2022/07/19 08:53:56;;;;;;;5.10;0.80;;;;;;;22.47;38.54;99935.11;25017;1316;3027358;-65
2022/07/19 08:59:13;;;;;;;4.00;0.80;;;;;;;22.93;37.89;99919.84;25124;1313;3052463;-65
2022/07/19 09:01:42;;;;;;;3.50;0.90;;;;;;;23.15;37.83;99915.88;25227;1315;3029757;-64
2022/07/19 09:04:16;;;;;;;2.30;0.90;;;;;;;23.23;37.34;99920.94;25110;1313;3059435;-64
2022/07/19 09:06:52;;;;;;;2.10;0.60;;;;;;;23.46;37.43;99916.87;25119;1313;3050309;-62
2022/07/19 09:09:22;;;;;;;1.40;0.70;;;;;;;23.64;36.51;99918.67;25101;1315;3053676;-62
2022/07/19 09:11:52;;;;;;;4.40;0.60;;;;;;;23.40;36.23;99920.77;25115;1313;3026243;-64
2022/07/19 09:14:22;;;;;;;2.80;0.70;;;;;;;22.94;36.82;99928.13;25084;1315;3026555;-64
2022/07/19 09:17:03;;;;;;;6.20;0.80;;;;;;;22.71;37.25;99929.95;25144;1313;3026793;-68
2022/07/19 09:19:34;;;;;;;1.70;0.80;;;;;;;22.82;37.05;99929.54;25151;1313;3055669;-63
2022/07/19 09:22:17;;;;;;;1.90;0.60;;;;;;;22.91;37.14;99929.86;25167;1315;3026068;-65
2022/07/19 09:24:49;;;;;;;3.30;0.70;;;;;;;23.25;36.82;99916.97;25186;1313;3056279;-63
2022/07/19 09:27:19;;;;;;;0.70;0.50;;;;;;;23.25;36.32;99916.30;25122;1313;3026364;-64
2022/07/19 09:29:54;;;;;;;3.20;0.80;;;;;;;22.90;36.44;99929.59;25081;1316;3026501;-67
2022/07/19 09:32:24;;;;;;;6.40;1.10;;;;;;;22.81;36.36;99923.75;25126;1318;3052889;-63
2022/07/19 09:34:58;;;;;;;2.80;0.60;;;;;;;22.89;36.42;99911.16;25062;1313;3026307;-63
2022/07/19 09:37:30;;;;;;;1.60;0.90;;;;;;;23.21;35.78;99903.63;25160;1312;3051414;-67
2022/07/19 09:40:05;;;;;;;3.70;0.60;;;;;;;23.37;34.69;99904.10;25145;1313;3054129;-67
2022/07/19 09:42:44;;;;;;;2.90;0.40;;;;;;;23.51;35.32;99905.52;25050;1315;3053984;-63
2022/07/19 09:45:17;;;;;;;2.00;0.60;;;;;;;23.56;34.52;99903.80;25191;1316;3059386;-68
2022/07/19 09:47:48;;;;;;;1.00;0.70;;;;;;;23.55;33.77;99895.91;25076;1313;3049907;-64
2022/07/19 09:50:18;;;;;;;5.50;0.60;;;;;;;23.86;33.74;99891.94;25103;1313;3026729;-63
2022/07/19 09:52:48;;;;;;;0.60;0.50;;;;;;;24.16;33.55;99894.46;25117;1313;3057492;-66
2022/07/19 09:55:17;;;;;;;1.00;0.50;;;;;;;24.36;33.02;99891.13;25091;1315;3026336;-68
2022/07/19 09:57:49;;;;;;;0.80;0.60;;;;;;;24.63;33.32;99888.36;25134;1313;3026884;-64
2022/07/19 10:00:21;;;;;;;0.90;0.40;;;;;;;24.60;33.30;99887.95;25153;1315;3027609;-66
2022/07/19 10:02:51;;;;;;;1.60;0.60;;;;;;;24.34;33.31;99890.88;25190;1314;3026552;-64
2022/07/19 10:05:20;;;;;;;3.70;1.00;;;;;;;24.17;32.50;99892.02;25126;1315;3026747;-66
2022/07/19 10:07:49;;;;;;;1.40;0.70;;;;;;;24.16;32.83;99894.29;25103;1314;3026345;-67
2022/07/19 10:10:20;;;;;;;1.40;0.60;;;;;;;24.28;32.67;99890.91;25123;1313;3026586;-66
2022/07/19 10:12:51;;;;;;;1.10;0.70;;;;;;;24.33;31.74;99888.61;25159;1315;3051684;-65
2022/07/19 10:15:20;;;;;;;2.50;0.90;;;;;;;24.70;31.58;99879.88;25186;1313;3027605;-64
2022/07/19 10:17:52;;;;;;;2.90;0.90;;;;;;;25.01;31.45;99876.19;25084;1314;3026328;-63
2022/07/19 10:20:23;;;;;;;3.60;0.60;;;;;;;25.18;31.66;99872.05;25112;1313;3027370;-68
2022/07/19 10:22:52;;;;;;;2.20;0.90;;;;;;;25.16;31.65;99877.27;25118;1313;3026277;-64
2022/07/19 10:25:21;;;;;;;1.20;0.70;;;;;;;24.71;32.19;99880.04;25107;1315;3026678;-67
2022/07/19 10:27:56;;;;;;;1.20;0.80;;;;;;;24.68;32.29;99870.59;25150;1313;3058376;-64
2022/07/19 10:30:25;;;;;;;2.80;0.70;;;;;;;24.89;32.02;99870.85;25155;1314;3049692;-66
2022/07/19 10:32:55;;;;;;;3.70;0.70;;;;;;;25.15;31.80;99864.10;25189;1313;3026296;-66
2022/07/19 10:35:29;;;;;;;1.40;0.70;;;;;;;25.18;31.04;99862.54;25152;1316;3059381;-66
2022/07/19 10:38:01;;;;;;;;;;;;;;;25.48;30.81;99858.35;25142;1313;3049804;-65
2022/07/19 10:40:56;;;;;;;4.00;0.80;;;;;;;25.59;30.26;99861.31;25118;1314;3025819;-66
2022/07/19 10:43:27;;;;;;;5.00;0.80;;;;;;;25.21;30.23;99867.02;25131;1315;3051390;-67
2022/07/19 10:45:56;;;;;;;3.00;0.80;;;;;;;25.03;30.72;99857.17;25224;1312;3026584;-67
2022/07/19 10:48:38;;;;;;;1.50;0.80;;;;;;;25.08;30.44;99852.85;25174;1315;3027341;-68
2022/07/19 10:51:10;;;;;;;3.90;0.70;;;;;;;25.36;30.19;99854.40;25213;1313;3051717;-67
2022/07/19 10:53:39;;;;;;;2.50;0.60;;;;;;;25.45;29.88;99852.27;25116;1316;3026679;-65
2022/07/19 10:56:18;;;;;;;2.60;0.70;;;;;;;25.47;29.90;99859.19;25443;1313;3027429;-65
2022/07/19 10:58:52;;;;;;;0.70;0.60;;;;;;;25.25;30.37;99849.86;25964;1313;3051204;-66
2022/07/19 11:01:22;;;;;;;5.00;0.70;;;;;;;25.41;30.66;99848.95;25807;1315;3069675;-65
2022/07/19 11:03:53;;;;;;;2.30;0.80;;;;;;;25.60;30.25;99850.98;25960;1313;3025925;-66
2022/07/19 11:06:25;;;;;;;3.00;0.70;;;;;;;25.84;29.88;99843.73;25818;1315;3027328;-66
2022/07/19 11:08:57;;;;;;;5.80;1.00;;;;;;;26.06;29.52;99843.58;25825;1313;3051816;-67
2022/07/19 11:11:27;;;;;;;1.90;0.70;;;;;;;26.14;29.36;99847.46;25963;1313;3026606;-64
2022/07/19 11:13:59;;;;;;;1.60;0.90;;;;;;;26.06;28.77;99849.52;25881;1313;3026576;-68
2022/07/19 11:16:31;;;;;;;1.40;1.00;;;;;;;26.17;28.89;99843.04;25937;1313;3053104;-64
2022/07/19 11:19:05;;;;;;;1.10;0.70;;;;;;;26.49;28.44;99842.25;25956;1313;3027077;-66
2022/07/19 11:21:36;;;;;;;1.50;0.90;;;;;;;26.71;28.11;99841.84;25872;1314;3069600;-67
2022/07/19 11:24:05;;;;;;;3.90;2.10;;;;;;;26.94;27.91;99835.34;25840;1313;3026139;-65
2022/07/19 11:26:38;;;;;;;3.30;1.70;;;;;;;27.13;27.93;99831.55;25956;1313;3025793;-65
2022/07/19 11:29:07;;;;;;;4.60;1.20;;;;;;;27.42;27.57;99825.07;25828;1313;3026059;-65
2022/07/19 11:31:36;;;;;;;3.40;1.20;;;;;;;27.40;27.66;99824.73;25928;1313;3026142;-67